Terminal Aerodrome Forecast
Issued by NWS Duluth, MN

Home | Current Version | Previous Version | Text Only | Print | Product List | Glossary On
Versions: 1 2 3 4 5 6 7 8 9 10 11 12 13 14 15 16 17 18 19 20 21 22 23
000
FTUS43 KDLH 191700
TAFDLH
TAF
KDLH 191720Z 1918/2018 17005KT 1 1/2SM -SN BR OVC004
     FM191900 17005KT 5SM -SN BR OVC007
     FM200400 17005KT 3SM -SN BR OVC004
     FM201600 18008KT 5SM -SN BR OVC007=

USA.gov is the U.S. government's official web portal to all federal, state and local government web resources and services.